Time;durP1;ratioP1;P1;durP2;ratioP2;P2;SDS_P1;SDS_P2;PMS_P1;PMS_P2;Temp;Humidity;BMP_temperature;BMP_pressure;BME280_temperature;BME280_humidity;BME280_pressure;Samples;Min_cycle;Max_cycle;Signal;HPM_P1;HPM_P2
2022/09/17 00:00:35;;;;;;;0.60;0.50;;;21.80;86.70;;;;;;5107647;28;20462;-77
2022/09/17 00:03:09;;;;;;;1.40;0.77;;;21.70;85.50;;;;;;5103418;28;22167;-79
2022/09/17 00:05:39;;;;;;;0.50;0.50;;;21.70;86.00;;;;;;5107969;28;20542;-78
2022/09/17 00:08:14;;;;;;;0.70;0.60;;;21.80;85.40;;;;;;5109305;28;20462;-78
2022/09/17 00:10:46;;;;;;;0.50;0.50;;;21.40;86.80;;;;;;5106019;28;20550;-79
2022/09/17 00:13:17;;;;;;;0.80;0.60;;;21.40;88.50;;;;;;5107082;28;20454;-78
2022/09/17 00:15:50;;;;;;;0.73;0.60;;;21.60;85.90;;;;;;5089414;28;20447;-78
2022/09/17 00:18:22;;;;;;;0.53;0.53;;;21.50;87.00;;;;;;5093568;28;20614;-72
2022/09/17 00:20:53;;;;;;;0.60;0.53;;;21.40;88.80;;;;;;5115684;28;20491;-75
2022/09/17 00:23:24;;;;;;;1.33;0.50;;;21.30;88.90;;;;;;5108796;28;20500;-76
2022/09/17 00:25:54;;;;;;;0.63;0.50;;;21.50;88.10;;;;;;5101307;28;20454;-73
2022/09/17 00:28:25;;;;;;;0.87;0.70;;;21.30;88.50;;;;;;5112053;28;20456;-72
2022/09/17 00:30:56;;;;;;;0.70;0.50;;;21.10;91.00;;;;;;5120827;28;20442;-74
2022/09/17 00:33:28;;;;;;;0.70;0.60;;;20.90;92.40;;;;;;5114790;28;20511;-74
2022/09/17 00:36:00;;;;;;;0.83;0.70;;;20.60;93.30;;;;;;5103532;28;20489;-73
2022/09/17 00:38:32;;;;;;;0.50;0.40;;;20.40;94.30;;;;;;5087719;28;20542;-73
2022/09/17 00:41:03;;;;;;;0.43;0.43;;;20.20;95.00;;;;;;5101259;28;20900;-72
2022/09/17 00:43:37;;;;;;;0.57;0.40;;;19.90;96.00;;;;;;5103234;28;20488;-72
2022/09/17 00:46:16;;;;;;;0.60;0.50;;;19.80;97.10;;;;;;5094826;28;20546;-72
2022/09/17 00:48:49;;;;;;;0.40;0.33;;;19.80;98.40;;;;;;5091638;28;20849;-70
2022/09/17 00:51:26;;;;;;;0.90;0.77;;;19.70;99.10;;;;;;5108806;28;20458;-71
2022/09/17 00:53:57;;;;;;;0.60;0.60;;;19.60;99.90;;;;;;5101108;28;20470;-73
2022/09/17 00:56:30;;;;;;;2.73;0.70;;;19.60;99.90;;;;;;5097212;28;20469;-71
2022/09/17 00:59:03;;;;;;;0.50;0.50;;;19.60;99.90;;;;;;5094334;28;20529;-72
2022/09/17 01:01:34;;;;;;;0.50;0.50;;;19.50;99.90;;;;;;5092073;28;20455;-73
2022/09/17 01:04:06;;;;;;;0.60;0.53;;;19.30;99.90;;;;;;5101282;28;20427;-70
2022/09/17 01:06:42;;;;;;;0.60;0.50;;;19.30;99.90;;;;;;5102815;28;20429;-69
2022/09/17 01:09:29;;;;;;;0.50;0.50;;;19.30;99.90;;;;;;5102392;28;20466;-69
2022/09/17 01:12:23;;;;;;;0.63;0.60;;;19.20;99.90;;;;;;5104686;28;20466;-70
2022/09/17 01:15:05;;;;;;;0.80;0.73;;;19.00;99.90;;;;;;5105745;28;20424;-70
2022/09/17 01:17:44;;;;;;;0.60;0.60;;;19.00;99.90;;;;;;5102602;28;20581;-69
2022/09/17 01:20:47;;;;;;;1.23;0.77;;;18.90;99.90;;;;;;5103993;28;20466;-70
2022/09/17 01:24:03;;;;;;;57.87;49.77;;;18.80;99.90;;;;;;5099702;28;20457;-71
2022/09/17 01:27:09;;;;;;;59.93;44.37;;;18.80;99.90;;;;;;5103723;28;20519;-76
2022/09/17 01:29:59;;;;;;;7.27;5.70;;;18.70;99.90;;;;;;5107279;28;21959;-69
2022/09/17 01:32:37;;;;;;;1.10;1.00;;;18.60;99.90;;;;;;5105770;28;20462;-70
2022/09/17 01:35:16;;;;;;;1.37;1.27;;;18.40;99.90;;;;;;5102153;28;20461;-74
2022/09/17 01:37:57;;;;;;;4.80;4.30;;;18.30;99.90;;;;;;5100737;28;20472;-72
2022/09/17 01:40:34;;;;;;;2.27;2.07;;;18.30;99.90;;;;;;5110089;28;20441;-75
2022/09/17 01:43:10;;;;;;;3.17;2.97;;;18.30;99.90;;;;;;5087474;28;20554;-73
2022/09/17 01:45:46;;;;;;;0.93;0.93;;;18.40;99.90;;;;;;5088354;28;20524;-72
2022/09/17 01:48:20;;;;;;;0.90;0.90;;;18.40;99.90;;;;;;5104240;28;20445;-73
2022/09/17 01:50:56;;;;;;;0.70;0.57;;;18.40;99.90;;;;;;5101990;28;20569;-72
2022/09/17 01:53:33;;;;;;;0.50;0.30;;;18.40;99.90;;;;;;5106777;28;20500;-74
2022/09/17 01:56:06;;;;;;;0.47;0.37;;;18.40;99.90;;;;;;5102934;28;20421;-72
2022/09/17 01:58:43;;;;;;;0.70;0.57;;;18.40;99.90;;;;;;5103083;28;20824;-73
2022/09/17 02:01:16;;;;;;;0.50;0.50;;;18.40;99.90;;;;;;5102144;28;20859;-78
2022/09/17 02:03:55;;;;;;;0.50;0.30;;;18.30;99.90;;;;;;5106212;28;20420;-77
2022/09/17 02:06:30;;;;;;;0.50;0.40;;;18.30;99.90;;;;;;5106139;28;20490;-72
2022/09/17 02:09:05;;;;;;;2.10;0.50;;;18.30;99.90;;;;;;5104061;28;20501;-76
2022/09/17 02:11:39;;;;;;;0.60;0.60;;;18.30;99.90;;;;;;5102725;28;21248;-75
2022/09/17 02:14:15;;;;;;;1.27;0.97;;;18.20;99.90;;;;;;5102695;28;20447;-73
2022/09/17 02:16:51;;;;;;;2.33;1.63;;;18.10;99.90;;;;;;5101575;28;20585;-70
2022/09/17 02:19:27;;;;;;;0.83;0.80;;;18.00;99.90;;;;;;5105040;28;20476;-71
2022/09/17 02:22:03;;;;;;;0.93;0.83;;;18.00;99.90;;;;;;5108594;28;20523;-71
2022/09/17 02:24:42;;;;;;;1.20;0.90;;;17.90;99.90;;;;;;5104005;28;20434;-69
2022/09/17 02:27:20;;;;;;;1.37;1.07;;;18.00;99.90;;;;;;5099503;28;20430;-70
2022/09/17 02:29:51;;;;;;;0.90;0.90;;;17.90;99.90;;;;;;5103642;28;20445;-69
2022/09/17 02:32:23;;;;;;;1.03;0.97;;;18.00;99.90;;;;;;5104051;28;20581;-70
2022/09/17 02:34:56;;;;;;;1.27;1.10;;;17.90;99.90;;;;;;5106017;28;20506;-70
2022/09/17 02:37:28;;;;;;;1.07;1.03;;;17.80;99.90;;;;;;5100986;28;20572;-80
2022/09/17 02:39:59;;;;;;;2.20;1.10;;;17.90;99.90;;;;;;5103189;28;20528;-67
2022/09/17 02:42:36;;;;;;;1.73;1.47;;;17.80;99.90;;;;;;5103614;28;20466;-68
2022/09/17 02:45:15;;;;;;;1.27;1.17;;;17.80;99.90;;;;;;5104768;28;20471;-68
2022/09/17 02:48:08;;;;;;;1.37;1.23;;;17.80;99.90;;;;;;5104454;28;20466;-67
2022/09/17 02:50:58;;;;;;;2.50;1.60;;;17.70;99.90;;;;;;5100189;28;20528;-69
2022/09/17 02:53:38;;;;;;;1.30;1.20;;;17.60;99.90;;;;;;5104685;28;20441;-69
2022/09/17 02:56:19;;;;;;;0.97;0.87;;;17.70;99.90;;;;;;5103857;28;20461;-67
2022/09/17 02:58:57;;;;;;;2.43;0.93;;;17.60;99.90;;;;;;5101837;28;20461;-67
2022/09/17 03:01:34;;;;;;;1.27;0.87;;;17.60;99.90;;;;;;5100870;28;20429;-69
2022/09/17 03:04:09;;;;;;;0.87;0.80;;;17.60;99.90;;;;;;5104861;28;20408;-67
2022/09/17 03:06:45;;;;;;;1.07;0.83;;;17.50;99.90;;;;;;5108379;28;20479;-66
2022/09/17 03:09:16;;;;;;;1.03;1.00;;;17.50;99.90;;;;;;5105565;28;20455;-69
2022/09/17 03:11:47;;;;;;;1.00;1.00;;;17.50;99.90;;;;;;5105682;28;20458;-67
2022/09/17 03:14:19;;;;;;;0.77;0.77;;;17.50;99.90;;;;;;5101190;28;20529;-67
2022/09/17 03:16:50;;;;;;;1.40;0.90;;;17.50;99.90;;;;;;5115012;28;20533;-68
2022/09/17 03:19:21;;;;;;;0.90;0.73;;;17.50;99.90;;;;;;5101471;28;20526;-67
2022/09/17 03:21:53;;;;;;;1.17;1.10;;;17.50;99.90;;;;;;5101983;28;20480;-68
2022/09/17 03:24:24;;;;;;;0.90;0.90;;;17.50;99.90;;;;;;5103370;28;20470;-67
2022/09/17 03:26:55;;;;;;;1.20;1.10;;;17.60;99.90;;;;;;5103825;28;20438;-69
2022/09/17 03:29:26;;;;;;;1.47;1.30;;;17.70;99.90;;;;;;5106234;28;20461;-68
2022/09/17 03:31:57;;;;;;;1.50;1.00;;;17.70;99.90;;;;;;5112592;28;20459;-70
2022/09/17 03:34:28;;;;;;;0.70;0.70;;;17.70;99.90;;;;;;5120193;28;20421;-68
2022/09/17 03:37:01;;;;;;;0.93;0.90;;;17.80;99.90;;;;;;5099154;28;20511;-68
2022/09/17 03:39:32;;;;;;;1.37;0.93;;;17.70;99.90;;;;;;5112629;28;20549;-69
2022/09/17 03:42:03;;;;;;;0.70;0.70;;;17.80;99.90;;;;;;5106791;28;20483;-68
2022/09/17 03:44:36;;;;;;;0.70;0.70;;;17.80;99.90;;;;;;5105784;28;20466;-71
2022/09/17 03:47:15;;;;;;;0.73;0.73;;;17.70;99.90;;;;;;5112000;28;20623;-70
2022/09/17 03:49:46;;;;;;;0.60;0.60;;;17.60;99.90;;;;;;5108163;28;20429;-69
2022/09/17 03:52:19;;;;;;;0.97;0.80;;;17.70;99.90;;;;;;5105835;28;20523;-67
2022/09/17 03:54:50;;;;;;;0.60;0.40;;;17.70;99.90;;;;;;5116484;28;20460;-69
2022/09/17 03:57:21;;;;;;;0.80;0.80;;;17.70;99.90;;;;;;5106164;28;20425;-70
2022/09/17 03:59:52;;;;;;;0.73;0.73;;;17.70;99.90;;;;;;5116592;28;20456;-69
2022/09/17 04:02:23;;;;;;;0.60;0.50;;;17.70;99.90;;;;;;5104741;28;20488;-70
2022/09/17 04:04:54;;;;;;;0.73;0.60;;;17.60;99.90;;;;;;5096551;28;20412;-68
2022/09/17 04:07:26;;;;;;;0.70;0.63;;;17.60;99.90;;;;;;5104265;28;20494;-69
2022/09/17 04:09:57;;;;;;;0.80;0.73;;;17.60;99.90;;;;;;5117775;28;20809;-70
2022/09/17 04:12:28;;;;;;;0.80;0.60;;;17.60;99.90;;;;;;5104603;28;20440;-68
2022/09/17 04:14:58;;;;;;;0.97;0.60;;;17.60;99.90;;;;;;5111202;28;20457;-67
2022/09/17 04:17:29;;;;;;;0.70;0.60;;;17.60;99.90;;;;;;5114380;28;20763;-66
2022/09/17 04:20:00;;;;;;;1.00;0.60;;;17.60;99.90;;;;;;5105699;28;20505;-70
2022/09/17 04:22:33;;;;;;;0.57;0.50;;;17.50;99.90;;;;;;5105621;28;20534;-70
2022/09/17 04:25:04;;;;;;;0.50;0.43;;;17.40;99.90;;;;;;5103153;28;20467;-70
2022/09/17 04:27:35;;;;;;;0.90;0.53;;;17.40;99.90;;;;;;5099440;28;20513;-70
2022/09/17 04:30:07;;;;;;;0.70;0.40;;;17.40;99.90;;;;;;5099709;28;20462;-68
2022/09/17 04:32:38;;;;;;;0.47;0.47;;;17.40;99.90;;;;;;5103271;28;20442;-71
2022/09/17 04:35:09;;;;;;;1.07;0.60;;;17.40;99.90;;;;;;5095300;28;20455;-72
2022/09/17 04:37:41;;;;;;;1.00;0.67;;;17.40;99.90;;;;;;5091964;28;20426;-71
2022/09/17 04:40:12;;;;;;;0.60;0.60;;;17.40;99.90;;;;;;5083603;28;20477;-71
2022/09/17 04:42:43;;;;;;;0.53;0.50;;;17.40;99.90;;;;;;5100273;28;20517;-71
2022/09/17 04:45:14;;;;;;;0.93;0.60;;;17.30;99.90;;;;;;5092805;28;20424;-69
2022/09/17 04:47:45;;;;;;;0.63;0.60;;;17.30;99.90;;;;;;5089943;28;20517;-67
2022/09/17 04:50:16;;;;;;;0.40;0.40;;;17.30;99.90;;;;;;5097050;28;20433;-69
2022/09/17 04:52:49;;;;;;;0.60;0.53;;;17.30;99.90;;;;;;5095337;28;20441;-67
2022/09/17 04:55:19;;;;;;;0.40;0.40;;;17.20;99.90;;;;;;5103224;28;20459;-68
2022/09/17 04:57:51;;;;;;;0.50;0.50;;;17.20;99.90;;;;;;5095890;28;20489;-67
2022/09/17 05:00:23;;;;;;;0.70;0.60;;;17.10;99.90;;;;;;5094630;28;20491;-68
2022/09/17 05:02:56;;;;;;;0.77;0.50;;;17.00;99.90;;;;;;5101273;28;20441;-67
2022/09/17 05:05:26;;;;;;;0.70;0.70;;;17.00;99.90;;;;;;5095009;28;20482;-68
2022/09/17 05:07:59;;;;;;;1.00;0.37;;;16.90;99.90;;;;;;5104788;28;20450;-68
2022/09/17 05:10:30;;;;;;;0.80;0.70;;;16.90;99.90;;;;;;5105032;28;20455;-68
2022/09/17 05:13:01;;;;;;;0.67;0.53;;;16.90;99.90;;;;;;5121355;28;20417;-67
2022/09/17 05:15:32;;;;;;;0.80;0.80;;;16.80;99.90;;;;;;5124577;28;20584;-67
2022/09/17 05:18:03;;;;;;;0.80;0.53;;;16.80;99.90;;;;;;5105639;28;20505;-68
2022/09/17 05:20:34;;;;;;;0.50;0.50;;;16.70;99.90;;;;;;5104582;28;20460;-67
2022/09/17 05:23:06;;;;;;;0.70;0.70;;;16.60;99.90;;;;;;5112820;28;20458;-67
2022/09/17 05:25:37;;;;;;;1.43;1.33;;;16.60;99.90;;;;;;5124529;28;20432;-67
2022/09/17 05:28:08;;;;;;;1.00;0.80;;;16.60;99.90;;;;;;5112703;28;20454;-67
2022/09/17 05:30:38;;;;;;;1.07;0.73;;;16.70;99.90;;;;;;5104677;28;20495;-67
2022/09/17 05:33:09;;;;;;;1.30;0.90;;;16.70;99.90;;;;;;5114452;28;20443;-66
2022/09/17 05:35:41;;;;;;;0.80;0.70;;;16.60;99.90;;;;;;5104130;28;20421;-66
2022/09/17 05:38:14;;;;;;;1.17;1.07;;;16.50;99.90;;;;;;5115631;28;20429;-67
2022/09/17 05:40:45;;;;;;;0.57;0.57;;;16.50;99.90;;;;;;5111240;28;20472;-66
2022/09/17 05:43:16;;;;;;;0.77;0.77;;;16.40;99.90;;;;;;5114253;28;20558;-68
2022/09/17 05:45:47;;;;;;;0.50;0.50;;;16.40;99.90;;;;;;5103607;28;20428;-67
2022/09/17 05:48:17;;;;;;;0.87;0.70;;;16.40;99.90;;;;;;5104217;28;20475;-67
2022/09/17 05:50:48;;;;;;;0.80;0.80;;;16.40;99.90;;;;;;5122481;28;20486;-67
2022/09/17 05:53:22;;;;;;;0.60;0.60;;;16.20;99.90;;;;;;5113517;28;20500;-67
2022/09/17 05:55:56;;;;;;;0.80;0.80;;;16.20;99.90;;;;;;5103396;28;20986;-67
2022/09/17 05:58:27;;;;;;;1.33;0.97;;;16.10;99.90;;;;;;5087641;28;20493;-67
2022/09/17 06:01:02;;;;;;;1.00;0.90;;;16.00;99.90;;;;;;5104035;28;20475;-67
2022/09/17 06:03:33;;;;;;;0.90;0.90;;;16.00;99.90;;;;;;5103344;28;20507;-66
2022/09/17 06:06:03;;;;;;;0.83;0.83;;;16.00;99.90;;;;;;5115873;28;20518;-66
2022/09/17 06:08:37;;;;;;;0.83;0.83;;;16.00;99.90;;;;;;5102538;28;20524;-67
2022/09/17 06:11:08;;;;;;;0.90;0.90;;;16.00;99.90;;;;;;5102561;28;20519;-67
2022/09/17 06:13:39;;;;;;;1.13;1.00;;;15.90;99.90;;;;;;5111365;28;20530;-67
2022/09/17 06:16:10;;;;;;;0.90;0.83;;;15.80;99.90;;;;;;5102808;28;20468;-67
2022/09/17 06:18:40;;;;;;;0.77;0.60;;;15.80;99.90;;;;;;5098634;28;20586;-66
2022/09/17 06:21:11;;;;;;;1.00;0.87;;;15.80;99.90;;;;;;5102814;28;20663;-67
2022/09/17 06:23:44;;;;;;;3.90;1.20;;;15.80;99.90;;;;;;5103439;28;20463;-67
2022/09/17 06:26:15;;;;;;;1.67;0.90;;;15.70;99.90;;;;;;5101976;28;20433;-67
2022/09/17 06:28:46;;;;;;;3.53;0.93;;;15.70;99.90;;;;;;5107788;28;20465;-67
2022/09/17 06:31:17;;;;;;;1.73;0.87;;;15.70;99.90;;;;;;5108942;28;20466;-68
2022/09/17 06:33:50;;;;;;;1.10;1.00;;;15.70;99.90;;;;;;5108460;28;20450;-67
2022/09/17 06:36:21;;;;;;;1.33;1.20;;;15.70;99.90;;;;;;5102769;28;20448;-67
2022/09/17 06:38:54;;;;;;;1.27;0.83;;;15.70;99.90;;;;;;5095046;28;20432;-67
2022/09/17 06:41:24;;;;;;;0.80;0.80;;;15.70;99.90;;;;;;5106364;28;20522;-67
2022/09/17 06:43:56;;;;;;;1.90;1.60;;;15.70;99.90;;;;;;5115330;28;20518;-68
2022/09/17 06:46:26;;;;;;;0.87;0.77;;;15.60;99.90;;;;;;5102159;28;20492;-68
2022/09/17 06:48:57;;;;;;;2.40;1.10;;;15.50;99.90;;;;;;5102339;28;20454;-67
2022/09/17 06:51:28;;;;;;;1.30;1.20;;;15.50;99.90;;;;;;5102577;28;20454;-67
2022/09/17 06:54:02;;;;;;;1.90;0.77;;;15.50;99.90;;;;;;5108191;28;20496;-67
2022/09/17 06:56:34;;;;;;;2.87;1.20;;;15.60;99.90;;;;;;5104783;28;20458;-67
2022/09/17 06:59:04;;;;;;;1.33;1.20;;;15.50;99.90;;;;;;5111943;28;20492;-68
2022/09/17 07:01:36;;;;;;;1.87;0.90;;;15.50;99.90;;;;;;5101987;28;20494;-67
2022/09/17 07:04:07;;;;;;;1.47;1.00;;;15.50;99.90;;;;;;5106438;28;20473;-67
2022/09/17 07:06:38;;;;;;;0.97;0.87;;;15.50;99.90;;;;;;5100384;28;20457;-67
2022/09/17 07:09:10;;;;;;;1.47;0.90;;;15.50;99.90;;;;;;5109580;28;20478;-66
2022/09/17 07:11:41;;;;;;;2.07;1.20;;;15.50;99.90;;;;;;5106461;28;20554;-67
2022/09/17 07:14:12;;;;;;;1.20;1.10;;;15.40;99.90;;;;;;5113678;28;20464;-67
2022/09/17 07:16:42;;;;;;;2.23;0.83;;;15.40;99.90;;;;;;5105113;28;20576;-67
2022/09/17 07:19:13;;;;;;;1.20;0.80;;;15.50;99.90;;;;;;5109224;28;20486;-67
2022/09/17 07:21:44;;;;;;;1.00;0.90;;;15.50;99.90;;;;;;5107087;28;20482;-67
2022/09/17 07:24:16;;;;;;;1.07;0.97;;;15.40;99.90;;;;;;5118375;28;20509;-67
2022/09/17 07:26:48;;;;;;;1.20;1.10;;;15.30;99.90;;;;;;5105483;28;20527;-67
2022/09/17 07:29:20;;;;;;;1.03;1.03;;;15.30;99.90;;;;;;5108817;28;20432;-67
2022/09/17 07:31:51;;;;;;;1.97;0.80;;;15.30;99.90;;;;;;5106656;28;20470;-67
2022/09/17 07:34:22;;;;;;;1.17;1.07;;;15.20;99.90;;;;;;5108854;28;20462;-67
2022/09/17 07:36:52;;;;;;;1.90;1.17;;;15.10;99.90;;;;;;5109590;28;20932;-67
2022/09/17 07:39:25;;;;;;;1.33;1.23;;;15.10;99.90;;;;;;5105083;28;20806;-67
2022/09/17 07:41:56;;;;;;;3.10;1.20;;;15.10;99.90;;;;;;5104052;28;20494;-67
2022/09/17 07:44:27;;;;;;;1.20;1.10;;;15.10;99.90;;;;;;5111422;28;20466;-67
2022/09/17 07:46:57;;;;;;;0.70;0.70;;;15.00;99.90;;;;;;5105583;28;20454;-66
2022/09/17 07:49:28;;;;;;;1.00;1.00;;;15.10;99.90;;;;;;5109801;28;20555;-67
2022/09/17 07:52:03;;;;;;;1.03;0.93;;;15.10;99.90;;;;;;5106222;28;20859;-67
2022/09/17 07:54:37;;;;;;;1.90;0.93;;;15.00;99.90;;;;;;5124031;28;20760;-67
2022/09/17 07:57:08;;;;;;;0.80;0.80;;;14.80;99.90;;;;;;5111140;28;20511;-67
2022/09/17 07:59:38;;;;;;;1.17;1.07;;;14.70;99.90;;;;;;5113897;28;20865;-67
2022/09/17 08:02:13;;;;;;;1.60;0.80;;;14.70;99.90;;;;;;5103771;28;20474;-67
2022/09/17 08:04:46;;;;;;;1.90;0.87;;;14.60;99.90;;;;;;5116341;28;20471;-67
2022/09/17 08:07:17;;;;;;;1.50;1.20;;;14.40;99.90;;;;;;5111388;28;20530;-67
2022/09/17 08:09:49;;;;;;;1.23;1.13;;;14.40;99.90;;;;;;5109130;28;20493;-67
2022/09/17 08:12:21;;;;;;;1.27;1.17;;;14.40;99.90;;;;;;5105164;28;20778;-67
2022/09/17 08:14:52;;;;;;;1.40;1.30;;;14.40;99.90;;;;;;5107060;27;20808;-66
2022/09/17 08:17:23;;;;;;;0.83;0.83;;;14.30;99.90;;;;;;5104300;28;20446;-67
2022/09/17 08:19:54;;;;;;;1.40;1.30;;;14.30;99.90;;;;;;5116526;28;20968;-67
2022/09/17 08:22:24;;;;;;;1.47;1.00;;;14.30;99.90;;;;;;5104828;28;20539;-66
2022/09/17 08:24:57;;;;;;;1.37;1.27;;;14.30;99.90;;;;;;5112045;28;20461;-67
2022/09/17 08:27:28;;;;;;;1.43;0.97;;;14.20;99.90;;;;;;5107174;28;20462;-67
2022/09/17 08:29:59;;;;;;;1.33;1.23;;;14.10;99.90;;;;;;5116717;28;20450;-68
2022/09/17 08:32:31;;;;;;;1.87;1.33;;;14.00;99.90;;;;;;5107775;28;20496;-67
2022/09/17 08:35:02;;;;;;;2.00;1.17;;;14.00;99.90;;;;;;5114256;28;20428;-68
2022/09/17 08:37:33;;;;;;;1.23;1.10;;;14.00;99.90;;;;;;5108186;28;20496;-67
2022/09/17 08:40:06;;;;;;;1.47;1.00;;;13.90;99.90;;;;;;5105550;28;20929;-67
2022/09/17 08:42:42;;;;;;;1.50;1.10;;;13.90;99.90;;;;;;5106870;28;20512;-67
2022/09/17 08:45:17;;;;;;;1.90;1.37;;;13.90;99.90;;;;;;5106944;28;20452;-67
2022/09/17 08:47:49;;;;;;;1.33;1.10;;;13.80;99.90;;;;;;5105173;28;20473;-67
2022/09/17 08:50:28;;;;;;;2.20;1.37;;;13.90;99.90;;;;;;5105021;28;20516;-67
2022/09/17 08:53:18;;;;;;;1.53;1.30;;;13.90;99.90;;;;;;5102122;28;20454;-67
2022/09/17 08:55:58;;;;;;;1.50;1.00;;;14.00;99.90;;;;;;5104770;28;20515;-66
2022/09/17 08:58:52;;;;;;;1.90;1.70;;;14.00;99.90;;;;;;5107299;28;20511;-68
2022/09/17 09:01:35;;;;;;;1.77;1.37;;;14.10;99.90;;;;;;5104325;28;20519;-68
2022/09/17 09:04:20;;;;;;;1.33;1.23;;;14.10;99.90;;;;;;5108940;28;20462;-67
2022/09/17 09:06:54;;;;;;;1.43;1.03;;;14.10;99.90;;;;;;5099403;28;20455;-68
2022/09/17 09:09:29;;;;;;;1.37;1.27;;;14.10;99.90;;;;;;5105134;28;20534;-67
2022/09/17 09:12:05;;;;;;;1.83;1.47;;;14.00;99.90;;;;;;5105063;28;20492;-67
2022/09/17 09:14:49;;;;;;;1.43;1.33;;;14.00;99.90;;;;;;5112456;28;20535;-68
2022/09/17 09:17:23;;;;;;;1.90;1.30;;;13.90;99.90;;;;;;5110303;28;20479;-68
2022/09/17 09:19:55;;;;;;;1.77;1.37;;;13.90;99.90;;;;;;5113141;28;20485;-67
2022/09/17 09:22:39;;;;;;;1.80;1.30;;;13.90;99.90;;;;;;5103328;28;20494;-67
2022/09/17 09:25:23;;;;;;;1.57;1.47;;;13.90;99.90;;;;;;5097462;28;20469;-67
2022/09/17 09:28:14;;;;;;;1.80;1.30;;;13.80;99.90;;;;;;5102592;28;20469;-67
2022/09/17 09:30:59;;;;;;;2.07;1.70;;;13.80;99.90;;;;;;5095756;28;20455;-67
2022/09/17 09:33:33;;;;;;;1.43;1.00;;;13.70;99.90;;;;;;5103717;28;20538;-67
2022/09/17 09:36:08;;;;;;;1.50;1.30;;;13.60;99.90;;;;;;5119229;28;20475;-67
2022/09/17 09:38:45;;;;;;;4.33;1.40;;;13.60;99.90;;;;;;5108208;28;20454;-67
2022/09/17 09:41:18;;;;;;;1.77;1.67;;;13.50;99.90;;;;;;5097565;28;20573;-67
2022/09/17 09:43:58;;;;;;;1.97;1.40;;;13.40;99.90;;;;;;5110876;28;20508;-68
2022/09/17 09:46:48;;;;;;;1.77;1.47;;;13.40;99.90;;;;;;5101744;28;20458;-67
2022/09/17 09:49:30;;;;;;;1.90;1.60;;;13.40;99.90;;;;;;5103263;28;20552;-68
2022/09/17 09:52:13;;;;;;;1.23;1.13;;;13.40;99.90;;;;;;5113170;28;21022;-67
2022/09/17 09:54:56;;;;;;;1.20;1.10;;;13.40;99.90;;;;;;5110943;28;20558;-67
2022/09/17 09:57:38;;;;;;;1.60;1.50;;;13.30;99.90;;;;;;5099066;28;20462;-67
2022/09/17 10:00:28;;;;;;;2.20;1.87;;;13.30;99.90;;;;;;5103616;28;20836;-67
2022/09/17 10:03:05;;;;;;;1.30;1.20;;;13.30;99.90;;;;;;5102653;28;20494;-67
2022/09/17 10:05:36;;;;;;;1.40;1.30;;;13.30;99.90;;;;;;5104247;28;20450;-67
2022/09/17 10:08:13;;;;;;;1.80;1.30;;;13.20;99.90;;;;;;5104680;28;20477;-67
2022/09/17 10:11:00;;;;;;;1.50;1.30;;;13.20;99.90;;;;;;5093159;28;20481;-67
2022/09/17 10:13:34;;;;;;;1.00;0.77;;;13.30;99.90;;;;;;5112845;28;20557;-68
2022/09/17 10:16:23;;;;;;;1.07;0.97;;;13.30;99.90;;;;;;5113018;28;20441;-67
2022/09/17 10:19:15;;;;;;;1.50;1.10;;;13.30;99.90;;;;;;5093318;28;20490;-67
2022/09/17 10:21:46;;;;;;;2.37;1.57;;;13.30;99.90;;;;;;5106039;28;20551;-67
2022/09/17 10:24:24;;;;;;;1.60;1.20;;;13.40;99.90;;;;;;5111394;28;20453;-66
2022/09/17 10:27:03;;;;;;;1.47;1.33;;;13.30;99.90;;;;;;5109768;28;20466;-67
2022/09/17 10:29:35;;;;;;;1.60;1.40;;;13.30;99.90;;;;;;5102787;28;20518;-67
2022/09/17 10:32:14;;;;;;;1.97;1.53;;;13.30;99.90;;;;;;5102374;28;20478;-67
2022/09/17 10:34:59;;;;;;;2.57;1.57;;;13.30;99.90;;;;;;5091447;28;20430;-67
2022/09/17 10:37:44;;;;;;;1.73;1.60;;;13.20;99.90;;;;;;5103538;28;20455;-67
2022/09/17 10:40:32;;;;;;;1.57;1.47;;;13.30;99.90;;;;;;5098902;28;20785;-67
2022/09/17 10:43:24;;;;;;;1.73;1.03;;;13.30;99.90;;;;;;5106698;28;20494;-67
2022/09/17 10:46:01;;;;;;;2.20;2.00;;;13.20;99.90;;;;;;5097322;28;20971;-67
2022/09/17 10:48:38;;;;;;;1.80;1.67;;;13.20;99.90;;;;;;5110182;28;20469;-67
2022/09/17 10:51:10;;;;;;;3.13;1.17;;;13.20;99.90;;;;;;5114111;28;20937;-67
2022/09/17 10:54:06;;;;;;;3.17;1.67;;;13.20;99.90;;;;;;5105770;28;20531;-68
2022/09/17 10:56:38;;;;;;;1.30;1.17;;;13.20;99.90;;;;;;5110871;28;20493;-67
2022/09/17 10:59:26;;;;;;;2.67;1.53;;;13.10;99.90;;;;;;5108592;28;20978;-68
2022/09/17 11:02:11;;;;;;;1.63;1.40;;;13.10;99.90;;;;;;5108303;28;20538;-68
2022/09/17 11:04:54;;;;;;;1.43;1.33;;;13.10;99.90;;;;;;5094780;28;20465;-67
2022/09/17 11:07:43;;;;;;;1.90;1.30;;;13.00;99.90;;;;;;5101913;28;20464;-67
2022/09/17 11:10:19;;;;;;;1.67;1.50;;;13.00;99.90;;;;;;5114234;28;20773;-67
2022/09/17 11:13:03;;;;;;;1.60;1.50;;;12.90;99.90;;;;;;5103807;28;20466;-67
2022/09/17 11:15:49;;;;;;;1.40;1.30;;;12.90;99.90;;;;;;5115132;28;20490;-67
2022/09/17 11:18:43;;;;;;;1.50;1.40;;;12.80;99.90;;;;;;5105233;28;20505;-67
2022/09/17 11:21:40;;;;;;;1.30;1.20;;;12.90;99.90;;;;;;5118731;28;20462;-67
2022/09/17 11:24:53;;;;;;;2.20;1.43;;;12.80;99.90;;;;;;5089946;28;20539;-67
2022/09/17 11:27:35;;;;;;;1.17;1.07;;;12.80;99.90;;;;;;5099436;28;20459;-67
2022/09/17 11:30:15;;;;;;;3.27;1.40;;;12.90;99.90;;;;;;5088644;28;20451;-67
2022/09/17 11:33:01;;;;;;;1.27;1.17;;;12.80;99.90;;;;;;5113013;28;20450;-67
2022/09/17 11:35:35;;;;;;;1.23;1.13;;;12.70;99.90;;;;;;5098292;28;20491;-67
2022/09/17 11:38:14;;;;;;;1.87;1.20;;;12.70;99.90;;;;;;5105789;28;20465;-67
2022/09/17 11:40:47;;;;;;;1.43;1.23;;;12.70;99.90;;;;;;5099443;28;20882;-67
2022/09/17 11:43:27;;;;;;;1.60;1.50;;;12.60;99.90;;;;;;5093712;28;20486;-67
2022/09/17 11:46:03;;;;;;;2.07;1.23;;;12.60;99.90;;;;;;5101513;28;20458;-67
2022/09/17 11:48:40;;;;;;;1.53;1.30;;;12.50;99.90;;;;;;5117966;28;20457;-67
2022/09/17 11:51:31;;;;;;;1.60;1.33;;;12.50;99.90;;;;;;5108072;28;20469;-67
2022/09/17 11:54:09;;;;;;;3.80;1.80;;;12.50;99.90;;;;;;5124201;28;20471;-67
2022/09/17 11:56:44;;;;;;;2.30;1.73;;;12.40;99.90;;;;;;5098887;28;20450;-67
2022/09/17 11:59:21;;;;;;;1.57;1.30;;;12.40;99.90;;;;;;5106042;28;20450;-67
2022/09/17 12:01:57;;;;;;;2.10;1.17;;;12.40;99.90;;;;;;5116892;28;20445;-67
2022/09/17 12:04:43;;;;;;;1.90;1.27;;;12.50;99.90;;;;;;5122763;28;20631;-67
2022/09/17 12:07:30;;;;;;;1.57;1.40;;;12.70;99.90;;;;;;5106123;28;20450;-67
2022/09/17 12:10:19;;;;;;;1.77;1.47;;;12.80;99.90;;;;;;5121511;28;20758;-67
2022/09/17 12:12:56;;;;;;;1.60;1.17;;;12.80;99.90;;;;;;5092011;28;20454;-67
2022/09/17 12:15:30;;;;;;;1.13;1.03;;;12.90;99.90;;;;;;5105864;28;20450;-67
2022/09/17 12:18:25;;;;;;;1.30;1.20;;;12.90;99.90;;;;;;5105618;28;20546;-67
2022/09/17 12:21:03;;;;;;;1.40;1.20;;;12.80;99.90;;;;;;5106105;28;20464;-67
2022/09/17 12:23:40;;;;;;;2.63;1.50;;;12.80;99.90;;;;;;5104361;28;20559;-67
2022/09/17 12:26:23;;;;;;;2.00;1.40;;;12.90;99.90;;;;;;5104229;28;20499;-67
2022/09/17 12:29:02;;;;;;;2.10;1.67;;;12.80;99.90;;;;;;5113408;28;20522;-67
2022/09/17 12:31:40;;;;;;;2.33;1.63;;;12.80;99.90;;;;;;5108484;28;20462;-67
2022/09/17 12:34:29;;;;;;;1.57;1.47;;;12.80;99.90;;;;;;5114074;28;20462;-67
2022/09/17 12:37:09;;;;;;;1.30;1.20;;;12.70;99.90;;;;;;5102348;28;20501;-67
2022/09/17 12:40:11;;;;;;;2.27;1.50;;;12.60;99.90;;;;;;5107653;28;20499;-67
2022/09/17 12:43:17;;;;;;;1.37;1.27;;;12.60;99.90;;;;;;5111257;28;20518;-67
2022/09/17 12:46:08;;;;;;;1.40;1.30;;;12.60;99.90;;;;;;5106065;28;20453;-67
2022/09/17 12:48:58;;;;;;;1.60;1.50;;;12.50;99.90;;;;;;5095282;28;20446;-67
2022/09/17 12:51:51;;;;;;;1.53;1.40;;;12.40;99.90;;;;;;5105542;28;20458;-67
2022/09/17 12:54:39;;;;;;;1.87;1.70;;;12.30;99.90;;;;;;5094275;28;20450;-67
2022/09/17 12:57:30;;;;;;;2.30;1.80;;;12.30;99.90;;;;;;5101993;28;20504;-67
2022/09/17 13:00:06;;;;;;;1.50;1.40;;;12.20;99.90;;;;;;5107658;28;20853;-67
2022/09/17 13:02:42;;;;;;;1.73;1.40;;;12.20;99.90;;;;;;5102273;28;20569;-67
2022/09/17 13:05:59;;;;;;;2.00;1.67;;;12.20;99.90;;;;;;5105206;28;20462;-67
2022/09/17 13:09:01;;;;;;;1.73;1.53;;;12.10;99.90;;;;;;5104266;28;20458;-67
2022/09/17 13:12:05;;;;;;;2.17;1.70;;;12.20;99.90;;;;;;5036381;28;20469;-67
2022/09/17 13:14:53;;;;;;;3.53;1.80;;;12.10;99.90;;;;;;5032611;28;20461;-67
2022/09/17 13:17:34;;;;;;;1.53;1.40;;;12.20;99.90;;;;;;5040700;28;20462;-67
2022/09/17 13:20:17;;;;;;;2.20;1.97;;;12.20;99.90;;;;;;5039870;28;20580;-67
2022/09/17 13:22:50;;;;;;;1.40;1.30;;;12.20;99.90;;;;;;5041224;28;20457;-67
2022/09/17 13:25:22;;;;;;;1.60;1.50;;;12.20;99.90;;;;;;5036428;28;20458;-67
2022/09/17 13:28:07;;;;;;;2.53;2.00;;;12.20;99.90;;;;;;5040587;28;20453;-67
2022/09/17 13:30:56;;;;;;;1.57;1.40;;;12.20;99.90;;;;;;5040919;28;20461;-67
2022/09/17 13:33:54;;;;;;;2.03;1.60;;;12.10;99.90;;;;;;5040270;28;20461;-67